SPJL/JUL METAR and TAF weather

Enter ICAO airport designator
Station Type Date Time Source
SPJL METAR 2021/08/04 18:00 UTC NOAA

SPJL 041800Z 04006KT 9999 VCSH SCT020 BKN070 11/M03 Q1037 RMK SH W PP000


Station Type Date Time Source
SPJL Decoded METAR 2021/08/04 18:00 UTC NOAA

Juliaca, Peru (SPJL) 15-29S 070-09W 3827M
Aug 04, 2021 - 02:00 PM EDT / 2021.08.04 1800 UTC
Wind: from the NE (040 degrees) at 7 MPH (6 KT):0
Visibility: greater than 7 mile(s):0
Sky conditions: mostly cloudy
Weather: showers in the vicinity
Temperature: 51 F (11 C)
Dew Point: 26 F (-3 C)
Relative Humidity: 37%
Pressure (altimeter): 30.62 in. Hg (1037 hPa)
ob: SPJL 041800Z 04006KT 9999 VCSH SCT020 BKN070 11/M03 Q1037 RMK SH W PP000
cycle: 18

Station Type Date Time Source
SPJL TAF 2021/08/04 18:33 UTC NOAA

TAF SPJL 041700Z 0418/0518 35007KT 9999 SCT020 BKN080 TX16/0419Z TNM01/0510Z
FM050100 14005KT 9999 FEW015 BKN100
TEMPO 0512/0514 BKN015
FM051430 35004KT 9999 SCT020

Example: see airport list